createdAt,value
2023-02-15T00:00:35.436Z,40.33
2023-02-15T00:01:35.481Z,40.78
2023-02-15T00:04:52.218Z,38.76
2023-02-15T00:05:52.212Z,41.11
2023-02-15T00:06:52.192Z,42.79
2023-02-15T00:07:52.184Z,42.36
2023-02-15T00:08:52.170Z,42.61
2023-02-15T00:09:52.147Z,42.60
2023-02-15T00:10:52.139Z,42.65
2023-02-15T00:11:52.121Z,42.72
2023-02-15T00:12:52.138Z,42.98
2023-02-15T00:13:52.104Z,46.56
2023-02-15T00:14:52.108Z,42.36
2023-02-15T00:15:52.095Z,42.21
2023-02-15T00:16:52.090Z,41.91
2023-02-15T00:17:52.077Z,45.40
2023-02-15T00:18:52.076Z,41.19
2023-02-15T00:19:52.048Z,41.82
2023-02-15T00:20:52.064Z,42.51
2023-02-15T00:21:52.029Z,41.74
2023-02-15T00:22:52.037Z,40.79
2023-02-15T00:23:52.007Z,41.93
2023-02-15T00:24:52.006Z,42.30
2023-02-15T00:25:51.998Z,41.20
2023-02-15T00:26:51.979Z,40.85
2023-02-15T00:27:51.981Z,40.70
2023-02-15T00:28:51.962Z,40.61
2023-02-15T00:29:51.982Z,40.43
2023-02-15T00:30:52.007Z,41.03
2023-02-15T00:31:51.977Z,40.07
2023-02-15T00:32:51.930Z,40.20
2023-02-15T00:33:51.907Z,40.34
2023-02-15T00:34:51.899Z,42.09
2023-02-15T00:35:51.884Z,41.20
2023-02-15T00:36:51.906Z,41.02
2023-02-15T00:37:51.877Z,41.18
2023-02-15T00:38:51.855Z,40.77
2023-02-15T00:39:51.895Z,40.79
2023-02-15T00:40:51.841Z,40.67
2023-02-15T00:41:51.825Z,42.78
2023-02-15T00:42:51.849Z,44.36
2023-02-15T00:43:51.810Z,43.07
2023-02-15T00:44:51.798Z,41.66
2023-02-15T00:45:51.804Z,39.97
2023-02-15T00:46:51.771Z,42.15
2023-02-15T00:47:51.774Z,42.43
2023-02-15T00:48:51.773Z,41.94
2023-02-15T00:49:53.774Z,40.68
2023-02-15T00:50:51.759Z,40.01
2023-02-15T00:51:51.729Z,39.35
2023-02-15T00:52:51.728Z,39.42
2023-02-15T00:53:51.710Z,41.12
2023-02-15T00:54:51.768Z,41.14
2023-02-15T00:55:52.567Z,43.07
2023-02-15T00:56:51.668Z,42.06
2023-02-15T00:57:51.701Z,41.73
2023-02-15T00:58:51.655Z,41.34
2023-02-15T00:59:51.646Z,41.31
2023-02-15T01:00:51.645Z,42.27
2023-02-15T01:01:51.661Z,42.43
2023-02-15T01:02:51.623Z,41.77
2023-02-15T01:03:51.601Z,42.14
2023-02-15T01:04:51.601Z,43.04
2023-02-15T01:05:51.581Z,43.41
2023-02-15T01:06:51.574Z,43.13
2023-02-15T01:07:54.053Z,43.11
2023-02-15T01:08:51.553Z,45.85
2023-02-15T01:09:51.537Z,42.55
2023-02-15T01:10:51.532Z,42.53
2023-02-15T01:11:51.525Z,43.20
2023-02-15T01:12:51.513Z,42.72
2023-02-15T01:13:51.511Z,42.00
2023-02-15T01:14:51.492Z,43.84
2023-02-15T01:15:51.515Z,42.89
2023-02-15T01:16:51.471Z,42.04
2023-02-15T01:17:51.458Z,41.94
2023-02-15T01:18:51.463Z,41.92
2023-02-15T01:19:51.437Z,41.95
2023-02-15T01:20:51.467Z,40.70
2023-02-15T01:21:51.413Z,40.63
2023-02-15T01:22:51.409Z,40.42
2023-02-15T01:23:51.444Z,40.80
2023-02-15T01:24:51.394Z,41.43
2023-02-15T01:25:51.381Z,41.55
2023-02-15T01:26:51.369Z,45.69
2023-02-15T01:27:51.356Z,41.78
2023-02-15T01:28:51.361Z,41.52
2023-02-15T01:29:51.380Z,41.44
2023-02-15T01:30:51.449Z,42.06
2023-02-15T01:31:51.410Z,41.95
2023-02-15T01:32:51.317Z,42.25
2023-02-15T01:33:51.330Z,42.26
2023-02-15T01:34:51.288Z,42.54
2023-02-15T01:35:51.283Z,42.26
2023-02-15T01:36:51.278Z,43.15
2023-02-15T01:37:51.269Z,43.39
2023-02-15T01:38:51.273Z,42.36
2023-02-15T01:39:51.239Z,42.82
2023-02-15T01:40:51.225Z,41.96
2023-02-15T01:41:51.211Z,42.11
2023-02-15T01:42:51.208Z,42.28
2023-02-15T01:43:51.214Z,43.04
2023-02-15T01:44:51.184Z,41.64
2023-02-15T01:45:51.224Z,41.74
2023-02-15T01:46:51.175Z,42.53
2023-02-15T01:47:51.155Z,43.37
2023-02-15T01:48:51.162Z,43.06
2023-02-15T01:49:51.129Z,42.30
2023-02-15T01:50:51.133Z,42.24
2023-02-15T01:51:51.136Z,42.46
2023-02-15T01:52:51.099Z,41.03
2023-02-15T01:54:51.080Z,40.66
2023-02-15T01:55:51.096Z,42.19
2023-02-15T01:56:51.069Z,42.23
2023-02-15T01:57:51.041Z,42.43
2023-02-15T01:58:51.066Z,43.13
2023-02-15T01:59:51.039Z,42.11
2023-02-15T02:00:51.025Z,42.27
2023-02-15T02:01:51.075Z,42.56
2023-02-15T02:02:51.058Z,42.84
2023-02-15T02:03:50.992Z,43.39
2023-02-15T02:04:50.996Z,41.81
2023-02-15T02:05:50.962Z,42.65
2023-02-15T02:06:50.962Z,41.77
2023-02-15T02:07:50.945Z,40.94
2023-02-15T02:08:50.954Z,41.95
2023-02-15T02:09:50.921Z,42.27
2023-02-15T02:10:50.921Z,42.68
2023-02-15T02:11:50.916Z,41.70
2023-02-15T02:12:50.909Z,42.47
2023-02-15T02:13:50.914Z,42.27
2023-02-15T02:14:50.880Z,41.92
2023-02-15T02:15:50.905Z,40.41
2023-02-15T02:16:50.863Z,40.82
2023-02-15T02:17:50.846Z,40.65
2023-02-15T02:18:50.865Z,40.85
2023-02-15T02:19:50.832Z,42.45
2023-02-15T02:20:50.823Z,46.35
2023-02-15T02:21:50.823Z,41.21
2023-02-15T02:22:50.823Z,40.85
2023-02-15T02:23:50.791Z,40.73
2023-02-15T02:24:50.816Z,41.04
2023-02-15T02:25:50.770Z,41.28
2023-02-15T02:26:50.774Z,40.10
2023-02-15T02:27:50.748Z,38.71
2023-02-15T02:28:50.743Z,40.07
2023-02-15T02:29:50.807Z,40.65
2023-02-15T02:30:50.832Z,40.56
2023-02-15T02:31:50.735Z,40.40
2023-02-15T02:32:50.714Z,40.70
2023-02-15T02:33:50.747Z,40.38
2023-02-15T02:34:50.702Z,40.72
2023-02-15T02:35:50.666Z,41.24
2023-02-15T02:36:50.666Z,40.92
2023-02-15T02:37:50.654Z,39.84
2023-02-15T02:38:50.646Z,40.67
2023-02-15T02:39:50.641Z,41.66
2023-02-15T02:40:50.628Z,41.41
2023-02-15T02:41:50.609Z,41.85
2023-02-15T02:42:50.610Z,41.72
2023-02-15T02:43:50.590Z,41.70
2023-02-15T02:44:50.604Z,41.04
2023-02-15T02:45:50.567Z,41.22
2023-02-15T02:46:50.669Z,43.74
2023-02-15T02:47:50.552Z,40.88
2023-02-15T02:48:50.542Z,42.23
2023-02-15T02:49:50.537Z,42.60
2023-02-15T02:50:50.522Z,40.84
2023-02-15T02:51:50.510Z,41.26
2023-02-15T02:52:50.503Z,41.90
2023-02-15T02:53:50.486Z,43.18
2023-02-15T02:54:50.489Z,44.35
2023-02-15T02:55:50.465Z,41.73
2023-02-15T02:56:50.468Z,41.66
2023-02-15T02:57:50.448Z,42.32
2023-02-15T02:58:50.431Z,42.49
2023-02-15T02:59:50.432Z,40.93
2023-02-15T03:00:50.414Z,39.31
2023-02-15T03:01:50.453Z,39.52
2023-02-15T03:02:50.439Z,41.14
2023-02-15T03:03:50.382Z,42.05
2023-02-15T03:04:50.398Z,45.28
2023-02-15T03:05:50.356Z,41.21
2023-02-15T03:06:50.364Z,41.91
2023-02-15T03:07:50.344Z,40.82
2023-02-15T03:08:50.333Z,45.80
2023-02-15T03:09:50.337Z,41.06
2023-02-15T03:10:50.309Z,40.31
2023-02-15T03:11:50.300Z,42.79
2023-02-15T03:12:50.309Z,42.25
2023-02-15T03:13:50.288Z,40.85
2023-02-15T03:14:50.286Z,41.29
2023-02-15T03:15:50.299Z,41.77
2023-02-15T03:16:50.268Z,40.42
2023-02-15T03:17:50.240Z,40.34
2023-02-15T03:18:50.227Z,41.07
2023-02-15T03:19:50.240Z,41.20
2023-02-15T03:20:50.220Z,40.17
2023-02-15T03:21:50.208Z,40.38
2023-02-15T03:22:50.190Z,41.59
2023-02-15T03:23:50.184Z,40.56
2023-02-15T03:24:50.176Z,41.40
2023-02-15T03:25:50.177Z,42.21
2023-02-15T03:26:50.152Z,42.14
2023-02-15T03:27:50.152Z,41.70
2023-02-15T03:28:50.131Z,40.62
2023-02-15T03:29:50.153Z,40.75
2023-02-15T03:30:50.125Z,41.72
2023-02-15T03:31:50.262Z,44.17
2023-02-15T03:32:50.085Z,43.81
2023-02-15T03:33:50.082Z,42.28
2023-02-15T03:34:50.071Z,42.37
2023-02-15T03:35:50.100Z,45.13
2023-02-15T03:36:50.045Z,41.65
2023-02-15T03:37:50.044Z,41.60
2023-02-15T03:38:50.026Z,43.17
2023-02-15T03:39:50.018Z,42.94
2023-02-15T03:40:50.029Z,42.37
2023-02-15T03:41:49.998Z,41.90
2023-02-15T03:42:50.008Z,42.65
2023-02-15T03:43:49.989Z,42.32
2023-02-15T03:44:49.982Z,42.97
2023-02-15T03:45:49.972Z,42.37
2023-02-15T03:46:51.714Z,43.22
2023-02-15T03:47:49.940Z,42.87
2023-02-15T03:48:49.930Z,42.40
2023-02-15T03:49:49.927Z,41.60
2023-02-15T03:50:49.918Z,41.88
2023-02-15T03:51:49.901Z,42.44
2023-02-15T03:52:49.886Z,44.10
2023-02-15T03:53:49.878Z,48.96
2023-02-15T03:54:49.862Z,43.90
2023-02-15T03:55:49.879Z,47.49
2023-02-15T03:56:49.844Z,44.96
2023-02-15T03:57:49.839Z,48.11
2023-02-15T03:58:49.823Z,45.62
2023-02-15T03:59:49.821Z,44.05
2023-02-15T04:00:49.844Z,46.67
2023-02-15T04:01:49.800Z,43.85
2023-02-15T04:02:49.820Z,43.58
2023-02-15T04:03:49.779Z,46.73
2023-02-15T04:04:49.763Z,44.47
2023-02-15T04:05:49.770Z,44.57
2023-02-15T04:06:49.741Z,43.73
2023-02-15T04:07:49.740Z,46.10
2023-02-15T04:08:49.717Z,44.04
2023-02-15T04:09:49.716Z,43.42
2023-02-15T04:10:49.716Z,44.64
2023-02-15T04:11:49.703Z,47.16
2023-02-15T04:12:49.685Z,47.22
2023-02-15T04:13:49.677Z,44.52
2023-02-15T04:14:49.659Z,47.46
2023-02-15T04:15:49.667Z,47.56
2023-02-15T04:16:49.722Z,47.67
2023-02-15T04:17:49.629Z,46.57
2023-02-15T04:18:49.613Z,49.93
2023-02-15T04:19:49.620Z,46.24
2023-02-15T04:20:49.594Z,47.44
2023-02-15T04:21:49.649Z,46.91
2023-02-15T04:22:49.571Z,47.51
2023-02-15T04:23:49.565Z,45.26
2023-02-15T04:24:49.547Z,49.82
2023-02-15T04:25:49.545Z,45.15
2023-02-15T04:26:49.548Z,45.43
2023-02-15T04:27:49.527Z,47.65
2023-02-15T04:28:49.510Z,50.73
2023-02-15T04:29:49.511Z,51.55
2023-02-15T04:30:49.485Z,51.89
2023-02-15T04:31:49.576Z,49.11
2023-02-15T04:32:49.477Z,50.23
2023-02-15T04:33:49.454Z,52.65
2023-02-15T04:34:49.446Z,48.29
2023-02-15T04:35:50.547Z,48.60
2023-02-15T04:36:49.438Z,49.43
2023-02-15T04:37:49.425Z,47.21
2023-02-15T04:38:49.410Z,48.46
2023-02-15T04:39:49.404Z,48.38
2023-02-15T04:40:49.393Z,48.20
2023-02-15T04:41:49.395Z,47.97
2023-02-15T04:42:49.366Z,48.02
2023-02-15T04:43:49.358Z,49.60
2023-02-15T04:44:49.336Z,49.23
2023-02-15T04:45:49.407Z,46.89
2023-02-15T04:46:49.343Z,48.38
2023-02-15T04:47:49.336Z,45.25
2023-02-15T04:48:49.319Z,47.68
2023-02-15T04:49:49.294Z,44.26
2023-02-15T04:50:49.282Z,49.57
2023-02-15T04:51:49.293Z,45.38
2023-02-15T04:52:49.268Z,46.13
2023-02-15T04:53:49.252Z,53.81
2023-02-15T04:54:49.247Z,45.86
2023-02-15T04:55:50.437Z,45.21
2023-02-15T04:56:50.429Z,48.27
2023-02-15T04:57:50.428Z,48.31
2023-02-15T04:58:50.400Z,50.15
2023-02-15T04:59:50.366Z,47.47
2023-02-15T05:00:50.395Z,48.29
2023-02-15T05:01:50.376Z,47.62
2023-02-15T05:02:50.363Z,47.91
2023-02-15T05:03:50.365Z,45.63
2023-02-15T05:04:50.316Z,50.07
2023-02-15T05:05:50.312Z,49.61
2023-02-15T05:06:50.294Z,50.56
2023-02-15T05:07:50.308Z,51.08
2023-02-15T05:08:50.281Z,52.94
2023-02-15T05:09:50.280Z,46.46
2023-02-15T05:10:50.291Z,43.84
2023-02-15T05:11:50.254Z,47.65
2023-02-15T05:12:50.266Z,54.68
2023-02-15T05:13:50.220Z,46.44
2023-02-15T05:14:50.220Z,45.56
2023-02-15T05:15:50.217Z,51.24
2023-02-15T05:16:50.281Z,46.94
2023-02-15T05:17:50.201Z,47.47
2023-02-15T05:18:50.202Z,52.73
2023-02-15T05:19:50.162Z,49.93
2023-02-15T05:20:50.167Z,46.10
2023-02-15T05:21:50.155Z,50.74
2023-02-15T05:22:50.151Z,51.49
2023-02-15T05:23:50.111Z,46.59
2023-02-15T05:24:50.151Z,53.68
2023-02-15T05:25:50.170Z,48.10
2023-02-15T05:26:50.155Z,44.26
2023-02-15T05:27:50.123Z,43.36
2023-02-15T05:28:50.107Z,46.18
2023-02-15T05:29:50.147Z,52.26
2023-02-15T05:30:50.234Z,44.94
2023-02-15T05:31:50.304Z,49.29
2023-02-15T05:32:50.129Z,51.26
2023-02-15T05:33:50.056Z,51.69
2023-02-15T05:34:50.056Z,50.16
2023-02-15T05:35:50.026Z,54.35
2023-02-15T05:36:50.027Z,48.86
2023-02-15T05:37:50.015Z,45.98
2023-02-15T05:38:50.034Z,50.44
2023-02-15T05:39:50.002Z,53.82
2023-02-15T05:40:50.291Z,50.08
2023-02-15T05:41:50.957Z,47.22
2023-02-15T05:42:49.967Z,47.95
2023-02-15T05:43:49.949Z,49.18
2023-02-15T05:44:49.943Z,45.08
2023-02-15T05:45:49.962Z,51.24
2023-02-15T05:46:49.930Z,46.71
2023-02-15T05:47:49.938Z,52.64
2023-02-15T05:48:49.918Z,51.01
2023-02-15T05:49:49.904Z,51.39
2023-02-15T05:50:49.907Z,55.71
2023-02-15T05:51:49.866Z,50.51
2023-02-15T05:52:52.089Z,50.88
2023-02-15T05:53:49.871Z,55.42
2023-02-15T05:54:49.847Z,51.01
2023-02-15T05:55:49.839Z,54.79
2023-02-15T05:56:49.815Z,48.28
2023-02-15T05:57:49.794Z,52.15
2023-02-15T05:58:49.910Z,48.85
2023-02-15T05:59:49.819Z,45.01
2023-02-15T06:00:49.836Z,54.67
2023-02-15T06:01:49.761Z,47.33
2023-02-15T06:02:49.829Z,49.84
2023-02-15T06:03:49.788Z,46.97
2023-02-15T06:04:49.722Z,52.35
2023-02-15T06:05:49.759Z,51.80
2023-02-15T06:06:49.704Z,57.92
2023-02-15T06:07:49.703Z,56.05
2023-02-15T06:08:50.330Z,57.85
2023-02-15T06:09:49.746Z,52.63
2023-02-15T06:10:51.422Z,53.95
2023-02-15T06:11:49.631Z,49.82
2023-02-15T06:12:49.720Z,49.48
2023-02-15T06:13:49.640Z,49.60
2023-02-15T06:14:49.624Z,52.03
2023-02-15T06:15:49.686Z,59.27
2023-02-15T06:16:49.618Z,50.19
2023-02-15T06:17:49.632Z,55.47
2023-02-15T06:18:49.653Z,53.86
2023-02-15T06:19:49.595Z,54.47
2023-02-15T06:20:49.621Z,51.27
2023-02-15T06:21:49.562Z,54.35
2023-02-15T06:22:49.574Z,53.14
2023-02-15T06:23:49.607Z,56.39
2023-02-15T06:24:49.650Z,51.22
2023-02-15T06:25:49.576Z,45.84
2023-02-15T06:26:49.541Z,49.43
2023-02-15T06:27:49.569Z,55.22
2023-02-15T06:28:49.548Z,53.98
2023-02-15T06:29:49.619Z,50.28
2023-02-15T06:30:49.568Z,53.65
2023-02-15T06:31:49.529Z,52.26
2023-02-15T06:32:49.455Z,54.38
2023-02-15T06:33:49.438Z,54.23
2023-02-15T06:34:49.485Z,50.46
2023-02-15T06:35:49.413Z,55.15
2023-02-15T06:36:49.423Z,51.96
2023-02-15T06:37:49.647Z,49.68
2023-02-15T06:38:49.403Z,54.58
2023-02-15T06:39:49.369Z,55.58
2023-02-15T06:40:49.360Z,54.48
2023-02-15T06:41:49.353Z,55.84
2023-02-15T06:42:49.344Z,53.31
2023-02-15T06:43:49.356Z,48.72
2023-02-15T06:44:49.374Z,50.43
2023-02-15T06:45:49.330Z,51.98
2023-02-15T06:46:49.400Z,51.81
2023-02-15T06:47:49.338Z,58.97
2023-02-15T06:48:49.342Z,53.19
2023-02-15T06:49:49.363Z,52.32
2023-02-15T06:50:49.393Z,54.45
2023-02-15T06:51:49.328Z,55.91
2023-02-15T06:52:49.329Z,56.34
2023-02-15T06:53:49.321Z,57.77
2023-02-15T06:54:49.340Z,50.39
2023-02-15T06:55:49.274Z,49.14
2023-02-15T06:56:49.225Z,54.30
2023-02-15T06:57:50.947Z,54.95
2023-02-15T06:58:50.234Z,52.66
2023-02-15T06:59:49.216Z,52.90
2023-02-15T07:00:49.209Z,54.60
2023-02-15T07:01:49.240Z,51.27
2023-02-15T07:02:49.168Z,51.65
2023-02-15T07:03:49.193Z,52.93
2023-02-15T07:04:49.162Z,50.98
2023-02-15T07:05:49.137Z,51.51
2023-02-15T07:06:49.116Z,49.81
2023-02-15T07:07:49.119Z,46.29
2023-02-15T07:08:49.129Z,49.36
2023-02-15T07:09:49.063Z,53.48
2023-02-15T07:10:49.098Z,45.97
2023-02-15T07:11:49.065Z,54.78
2023-02-15T07:12:49.053Z,51.87
2023-02-15T07:13:49.038Z,52.91
2023-02-15T07:14:49.030Z,49.97
2023-02-15T07:15:49.105Z,52.68
2023-02-15T07:16:49.007Z,54.51
2023-02-15T07:17:50.091Z,53.95
2023-02-15T07:18:49.026Z,47.52
2023-02-15T07:19:48.968Z,51.41
2023-02-15T07:20:49.005Z,45.79
2023-02-15T07:21:48.952Z,57.31
2023-02-15T07:22:49.029Z,50.22
2023-02-15T07:23:48.931Z,46.91
2023-02-15T07:24:48.942Z,50.15
2023-02-15T07:25:48.937Z,52.25
2023-02-15T07:26:48.965Z,55.20
2023-02-15T07:27:48.935Z,52.49
2023-02-15T07:28:48.942Z,49.84
2023-02-15T07:29:48.891Z,53.52
2023-02-15T07:30:48.964Z,51.14
2023-02-15T07:31:48.949Z,49.82
2023-02-15T07:32:48.915Z,51.01
2023-02-15T07:33:48.918Z,51.94
2023-02-15T07:34:48.897Z,46.80
2023-02-15T07:35:48.897Z,50.97
2023-02-15T07:36:48.910Z,56.50
2023-02-15T07:37:48.855Z,54.18
2023-02-15T07:38:48.844Z,49.06
2023-02-15T07:39:48.884Z,49.77
2023-02-15T07:40:48.809Z,48.34
2023-02-15T07:41:48.798Z,51.92
2023-02-15T07:42:48.807Z,51.45
2023-02-15T07:43:48.834Z,51.18
2023-02-15T07:44:48.842Z,50.88
2023-02-15T07:45:48.808Z,54.35
2023-02-15T07:46:48.853Z,55.10
2023-02-15T07:47:48.773Z,53.77
2023-02-15T07:48:48.748Z,53.80
2023-02-15T07:49:48.703Z,54.95
2023-02-15T07:50:48.749Z,53.63
2023-02-15T07:51:48.701Z,50.27
2023-02-15T07:52:48.740Z,50.17
2023-02-15T07:53:48.763Z,48.29
2023-02-15T07:54:48.693Z,49.51
2023-02-15T07:55:48.648Z,46.98
2023-02-15T07:56:48.671Z,52.47
2023-02-15T07:57:48.746Z,48.81
2023-02-15T07:58:48.674Z,47.41
2023-02-15T07:59:48.654Z,52.89
2023-02-15T08:00:48.701Z,51.89
2023-02-15T08:01:48.667Z,51.50
2023-02-15T08:02:48.670Z,50.05
2023-02-15T08:03:48.771Z,50.77
2023-02-15T08:04:48.698Z,47.34
2023-02-15T08:05:48.653Z,53.11
2023-02-15T08:06:48.540Z,53.87
2023-02-15T08:07:48.568Z,53.38
2023-02-15T08:08:48.584Z,48.28
2023-02-15T08:09:48.521Z,48.72
2023-02-15T08:10:48.558Z,50.14
2023-02-15T08:11:48.566Z,49.96
2023-02-15T08:12:48.528Z,48.20
2023-02-15T08:13:48.485Z,53.49
2023-02-15T08:14:49.536Z,50.21
2023-02-15T08:15:48.462Z,47.53
2023-02-15T08:16:48.490Z,57.59
2023-02-15T08:17:48.459Z,48.13
2023-02-15T08:18:48.452Z,48.79
2023-02-15T08:19:48.440Z,51.50
2023-02-15T08:20:48.455Z,50.09
2023-02-15T08:21:48.421Z,50.38
2023-02-15T08:22:48.452Z,48.99
2023-02-15T08:23:48.430Z,53.32
2023-02-15T08:24:48.413Z,49.25
2023-02-15T08:25:48.375Z,54.33
2023-02-15T08:26:48.470Z,50.52
2023-02-15T08:27:48.381Z,54.65
2023-02-15T08:28:48.343Z,54.44
2023-02-15T08:29:48.391Z,52.33
2023-02-15T08:30:48.416Z,50.16
2023-02-15T08:31:48.408Z,48.91
2023-02-15T08:32:48.321Z,49.48
2023-02-15T08:33:48.261Z,54.43
2023-02-15T08:34:48.273Z,47.37
2023-02-15T08:35:48.273Z,47.90
2023-02-15T08:36:48.256Z,52.79
2023-02-15T08:37:48.392Z,49.28
2023-02-15T08:38:48.255Z,53.80
2023-02-15T08:39:48.231Z,55.16
2023-02-15T08:40:48.210Z,48.70
2023-02-15T08:41:48.406Z,52.54
2023-02-15T08:42:48.193Z,46.45
2023-02-15T08:43:48.255Z,49.85
2023-02-15T08:44:50.311Z,57.15
2023-02-15T08:45:49.197Z,47.63
2023-02-15T08:46:48.230Z,49.57
2023-02-15T08:47:48.178Z,47.18
2023-02-15T08:48:48.186Z,51.52
2023-02-15T08:49:48.169Z,49.85
2023-02-15T08:50:48.128Z,56.90
2023-02-15T08:51:48.195Z,55.60
2023-02-15T08:52:48.106Z,56.95
2023-02-15T08:53:48.156Z,53.51
2023-02-15T08:54:49.108Z,55.20
2023-02-15T08:55:48.088Z,46.89
2023-02-15T08:56:48.135Z,51.42
2023-02-15T08:57:48.128Z,49.58
2023-02-15T08:58:48.123Z,48.48
2023-02-15T08:59:48.069Z,56.01
2023-02-15T09:00:48.110Z,52.71
2023-02-15T09:01:48.026Z,54.59
2023-02-15T09:02:48.050Z,52.73
2023-02-15T09:03:48.081Z,55.93
2023-02-15T09:04:48.028Z,50.53
2023-02-15T09:05:48.991Z,50.09
2023-02-15T09:06:49.084Z,49.80
2023-02-15T09:07:48.972Z,50.28
2023-02-15T09:08:48.055Z,48.09
2023-02-15T09:09:48.010Z,49.18
2023-02-15T09:10:47.933Z,48.82
2023-02-15T09:11:47.926Z,49.08
2023-02-15T09:12:47.954Z,51.12
2023-02-15T09:13:47.925Z,51.20
2023-02-15T09:14:47.897Z,52.35
2023-02-15T09:15:48.017Z,51.91
2023-02-15T09:16:47.959Z,50.83
2023-02-15T09:17:48.970Z,52.55
2023-02-15T09:18:47.935Z,54.13
2023-02-15T09:19:47.983Z,49.76
2023-02-15T09:20:47.890Z,47.85
2023-02-15T09:21:47.988Z,52.55
2023-02-15T09:22:47.865Z,47.21
2023-02-15T09:23:47.801Z,53.70
2023-02-15T09:24:47.844Z,52.70
2023-02-15T09:25:47.902Z,50.11
2023-02-15T09:26:47.811Z,48.84
2023-02-15T09:27:47.801Z,50.41
2023-02-15T09:28:47.759Z,50.59
2023-02-15T09:29:47.812Z,49.73
2023-02-15T09:30:47.794Z,50.83
2023-02-15T09:31:47.720Z,50.26
2023-02-15T09:32:47.672Z,50.77
2023-02-15T09:33:47.642Z,51.03
2023-02-15T09:34:47.667Z,46.00
2023-02-15T09:35:47.628Z,46.58
2023-02-15T09:36:47.869Z,49.03
2023-02-15T09:37:47.744Z,46.67
2023-02-15T09:38:47.624Z,51.65
2023-02-15T09:39:49.123Z,51.53
2023-02-15T09:40:48.642Z,53.19
2023-02-15T09:41:47.626Z,52.67
2023-02-15T09:42:47.672Z,51.53
2023-02-15T09:43:47.632Z,51.49
2023-02-15T09:44:47.599Z,50.02
2023-02-15T09:45:47.631Z,52.19
2023-02-15T09:46:47.591Z,50.24
2023-02-15T09:47:47.603Z,53.35
2023-02-15T09:48:47.521Z,54.34
2023-02-15T09:49:47.540Z,53.48
2023-02-15T09:50:47.508Z,49.38
2023-02-15T09:51:47.459Z,52.72
2023-02-15T09:52:47.642Z,55.88
2023-02-15T09:53:47.481Z,53.69
2023-02-15T09:54:47.478Z,50.45
2023-02-15T09:55:47.472Z,56.29
2023-02-15T09:56:47.413Z,48.93
2023-02-15T09:57:47.448Z,49.24
2023-02-15T09:58:47.529Z,47.27
2023-02-15T09:59:47.456Z,52.34
2023-02-15T10:00:47.419Z,52.04
2023-02-15T10:01:47.627Z,50.64
2023-02-15T10:02:47.677Z,49.72
2023-02-15T10:03:47.435Z,49.86
2023-02-15T10:04:47.535Z,52.81
2023-02-15T10:05:47.426Z,53.67
2023-02-15T10:06:47.422Z,49.39
2023-02-15T10:07:47.407Z,52.56
2023-02-15T10:08:47.347Z,56.57
2023-02-15T10:09:47.362Z,45.97
2023-02-15T10:10:47.393Z,50.95
2023-02-15T10:11:47.353Z,51.01
2023-02-15T10:12:47.553Z,48.75
2023-02-15T10:13:47.442Z,51.76
2023-02-15T10:14:47.372Z,46.82
2023-02-15T10:15:47.454Z,54.81
2023-02-15T10:16:49.360Z,53.22
2023-02-15T10:17:47.290Z,50.44
2023-02-15T10:18:47.470Z,47.36
2023-02-15T10:19:47.351Z,51.36
2023-02-15T10:20:47.338Z,49.42
2023-02-15T10:21:47.283Z,54.26
2023-02-15T10:22:47.291Z,52.51
2023-02-15T10:23:47.244Z,48.28
2023-02-15T10:24:48.913Z,47.73
2023-02-15T10:25:48.281Z,51.79
2023-02-15T10:26:47.390Z,49.22
2023-02-15T10:27:47.404Z,48.94
2023-02-15T10:28:47.333Z,54.89
2023-02-15T10:29:47.395Z,52.99
2023-02-15T10:30:47.349Z,54.35
2023-02-15T10:31:47.329Z,51.42
2023-02-15T10:32:48.656Z,46.26
2023-02-15T10:35:57.076Z,56.84
2023-02-15T10:35:58.787Z,0.00
2023-02-15T10:36:58.642Z,51.31
2023-02-15T10:37:58.787Z,51.10
2023-02-15T10:38:58.583Z,52.11
2023-02-15T10:39:58.629Z,49.80
2023-02-15T10:40:59.949Z,44.38
2023-02-15T10:42:04.597Z,49.44
2023-02-15T10:42:59.617Z,44.19
2023-02-15T10:43:58.620Z,51.64
2023-02-15T10:44:59.703Z,52.61
2023-02-15T10:45:58.565Z,50.02
2023-02-15T10:46:58.544Z,54.59
2023-02-15T10:47:58.523Z,50.98
2023-02-15T10:48:58.659Z,51.18
2023-02-15T11:05:44.165Z,47.51
2023-02-15T11:06:44.143Z,44.37
2023-02-15T11:07:44.717Z,53.22
2023-02-15T11:08:44.343Z,48.83
2023-02-15T11:09:44.138Z,53.52
2023-02-15T11:10:44.100Z,52.03
2023-02-15T11:11:44.148Z,49.11
2023-02-15T11:12:44.099Z,51.76
2023-02-15T11:13:44.070Z,53.20
2023-02-15T11:14:44.058Z,53.77
2023-02-15T11:15:44.091Z,48.91
2023-02-15T11:16:44.052Z,58.31
2023-02-15T11:17:44.029Z,52.89
2023-02-15T11:18:44.027Z,54.31
2023-02-15T11:19:44.077Z,49.36
2023-02-15T11:20:43.994Z,51.23
2023-02-15T11:21:44.008Z,53.43
2023-02-15T11:22:43.971Z,47.54
2023-02-15T11:23:43.989Z,49.11
2023-02-15T11:24:43.954Z,50.32
2023-02-15T11:25:43.985Z,49.84
2023-02-15T11:26:43.977Z,49.15
2023-02-15T11:27:45.559Z,47.20
2023-02-15T11:39:55.395Z,52.89
2023-02-15T11:40:55.351Z,54.21
2023-02-15T11:41:55.394Z,50.52
2023-02-15T11:42:55.343Z,49.42
2023-02-15T11:43:55.358Z,52.49
2023-02-15T11:44:56.042Z,48.05
2023-02-15T11:48:29.167Z,52.73
2023-02-15T11:49:29.288Z,54.13
2023-02-15T11:54:30.631Z,50.01
2023-02-15T11:55:32.096Z,54.28
2023-02-15T11:56:30.658Z,49.52
2023-02-15T11:57:30.615Z,51.69
2023-02-15T11:58:57.859Z,53.26
2023-02-15T11:59:30.614Z,46.54
2023-02-15T12:00:30.597Z,48.93
2023-02-15T12:01:30.611Z,46.38
2023-02-15T12:02:30.566Z,52.21
2023-02-15T12:03:30.607Z,51.24
2023-02-15T12:04:30.533Z,51.39
2023-02-15T12:05:32.207Z,53.91
2023-02-15T12:06:30.619Z,49.35
2023-02-15T12:07:30.541Z,48.04
2023-02-15T12:08:30.492Z,49.91
2023-02-15T12:09:30.506Z,54.81
2023-02-15T12:10:30.500Z,51.73
2023-02-15T12:11:30.464Z,48.06
2023-02-15T12:12:30.442Z,45.79
2023-02-15T12:13:30.458Z,47.73
2023-02-15T12:14:30.417Z,47.87
2023-02-15T12:15:30.417Z,48.84
2023-02-15T12:16:30.435Z,50.39
2023-02-15T12:17:30.399Z,52.35
2023-02-15T12:18:30.388Z,53.88
2023-02-15T12:19:30.382Z,54.48
2023-02-15T12:20:30.394Z,46.31
2023-02-15T12:21:30.363Z,53.94
2023-02-15T12:22:30.382Z,54.02
2023-02-15T12:23:30.336Z,49.42
2023-02-15T12:24:30.324Z,52.76
2023-02-15T12:25:30.347Z,54.15
2023-02-15T12:26:30.370Z,51.15
2023-02-15T12:27:30.285Z,53.56
2023-02-15T12:28:30.280Z,53.00
2023-02-15T12:29:30.296Z,50.03
2023-02-15T12:30:30.307Z,53.46
2023-02-15T12:31:30.429Z,52.50
2023-02-15T12:32:30.258Z,48.23
2023-02-15T12:33:30.229Z,50.70
2023-02-15T12:34:30.225Z,53.02
2023-02-15T12:35:30.217Z,51.68
2023-02-15T12:36:30.196Z,51.45
2023-02-15T12:37:30.197Z,50.64
2023-02-15T12:38:30.210Z,49.64
2023-02-15T12:39:30.155Z,51.06
2023-02-15T12:40:31.604Z,54.71
2023-02-15T12:41:30.150Z,51.42
2023-02-15T12:42:30.165Z,47.91
2023-02-15T12:43:30.128Z,48.98
2023-02-15T12:44:30.115Z,50.31
2023-02-15T12:45:30.112Z,47.89
2023-02-15T12:46:30.225Z,47.98
2023-02-15T12:47:30.101Z,52.25
2023-02-15T12:48:30.078Z,53.10
2023-02-15T12:49:30.068Z,52.84
2023-02-15T12:50:34.581Z,55.38
2023-02-15T12:51:30.051Z,46.04
2023-02-15T12:52:30.055Z,49.61
2023-02-15T12:53:30.024Z,52.96
2023-02-15T12:54:30.045Z,52.40
2023-02-15T12:55:30.034Z,55.50
2023-02-15T12:56:30.015Z,54.30
2023-02-15T12:57:31.221Z,51.45
2023-02-15T12:58:31.271Z,53.73
2023-02-15T12:59:31.169Z,48.44
2023-02-15T13:00:31.222Z,51.82
2023-02-15T13:01:31.206Z,49.55
2023-02-15T13:02:31.230Z,49.26
2023-02-15T13:03:31.148Z,47.92
2023-02-15T13:04:31.192Z,50.56
2023-02-15T13:05:31.202Z,49.56
2023-02-15T13:06:31.189Z,51.07
2023-02-15T13:07:31.177Z,51.04
2023-02-15T13:08:31.161Z,49.65
2023-02-15T13:09:31.117Z,53.61
2023-02-15T13:10:31.075Z,54.84
2023-02-15T13:11:31.400Z,48.91
2023-02-15T13:12:32.051Z,50.63
2023-02-15T13:13:31.064Z,48.61
2023-02-15T13:14:31.066Z,54.70
2023-02-15T13:15:31.078Z,50.45
2023-02-15T13:16:31.046Z,50.60
2023-02-15T13:17:30.962Z,53.60
2023-02-15T13:18:31.002Z,51.28
2023-02-15T13:19:30.987Z,53.20
2023-02-15T13:20:30.947Z,48.80
2023-02-15T13:21:30.991Z,58.15
2023-02-15T13:22:30.936Z,48.10
2023-02-15T13:23:30.950Z,48.06
2023-02-15T13:24:30.911Z,53.87
2023-02-15T13:25:31.977Z,48.32
2023-02-15T13:26:31.071Z,51.12
2023-02-15T13:27:31.210Z,47.65
2023-02-15T13:28:31.309Z,48.77
2023-02-15T13:36:31.383Z,52.53
2023-02-15T13:37:31.250Z,55.33